createdAt,value
2023-02-18T00:01:52.762Z,94.56
2023-02-18T00:04:20.274Z,95.23
2023-02-18T00:06:47.689Z,95.05
2023-02-18T00:09:14.671Z,94.64
2023-02-18T00:11:41.887Z,93.63
2023-02-18T00:14:12.507Z,92.75
2023-02-18T00:16:39.512Z,92.32
2023-02-18T00:19:07.814Z,92.02
2023-02-18T00:21:35.370Z,92.37
2023-02-18T00:24:02.741Z,92.19
2023-02-18T00:26:29.833Z,91.96
2023-02-18T00:28:57.126Z,91.32
2023-02-18T00:31:25.986Z,91.21
2023-02-18T00:33:53.025Z,91.04
2023-02-18T00:36:20.879Z,91.20
2023-02-18T00:38:50.052Z,91.38
2023-02-18T00:41:17.411Z,91.57
2023-02-18T00:43:44.455Z,91.64
2023-02-18T00:46:11.992Z,91.30
2023-02-18T00:48:39.243Z,91.95
2023-02-18T00:51:07.000Z,91.99
2023-02-18T00:53:34.139Z,92.18
2023-02-18T00:56:01.591Z,92.11
2023-02-18T00:58:28.846Z,92.79
2023-02-18T01:00:56.327Z,93.27
2023-02-18T01:03:24.132Z,93.69
2023-02-18T01:05:51.325Z,93.56
2023-02-18T01:08:19.320Z,94.27
2023-02-18T01:10:47.424Z,94.82
2023-02-18T01:13:14.672Z,95.56
2023-02-18T01:15:42.353Z,95.73
2023-02-18T01:18:09.896Z,95.42
2023-02-18T01:20:38.129Z,95.60
2023-02-18T01:23:05.208Z,96.02
2023-02-18T01:25:32.626Z,95.89
2023-02-18T01:27:59.550Z,96.47
2023-02-18T01:30:26.616Z,96.37
2023-02-18T01:32:53.767Z,96.28
2023-02-18T01:35:20.864Z,96.14
2023-02-18T01:37:48.103Z,96.44
2023-02-18T01:40:16.169Z,96.65
2023-02-18T01:42:43.090Z,96.76
2023-02-18T01:45:13.097Z,96.31
2023-02-18T01:47:40.067Z,94.61
2023-02-18T01:50:07.487Z,94.12
2023-02-18T01:52:34.454Z,94.33
2023-02-18T01:55:01.476Z,93.96
2023-02-18T01:57:31.471Z,93.61
2023-02-18T02:00:00.604Z,93.35
2023-02-18T02:02:28.377Z,92.26
2023-02-18T02:04:55.970Z,91.88
2023-02-18T02:07:24.294Z,91.23
2023-02-18T02:09:53.077Z,90.07
2023-02-18T02:12:23.297Z,88.95
2023-02-18T02:15:00.367Z,88.95
2023-02-18T02:17:30.355Z,88.52
2023-02-18T02:20:09.562Z,88.18
2023-02-18T02:22:39.736Z,87.79
2023-02-18T02:25:12.089Z,87.36
2023-02-18T02:27:42.180Z,87.81
2023-02-18T02:30:12.726Z,88.50
2023-02-18T02:32:54.045Z,88.64
2023-02-18T02:35:24.277Z,87.97
2023-02-18T02:37:54.437Z,87.87
2023-02-18T02:40:27.213Z,87.92
2023-02-18T02:42:57.576Z,86.68
2023-02-18T02:45:29.579Z,86.45
2023-02-18T02:47:58.064Z,85.58
2023-02-18T02:50:25.401Z,84.02
2023-02-18T02:52:55.354Z,83.65
2023-02-18T02:55:22.436Z,82.90
2023-02-18T02:57:50.659Z,81.95
2023-02-18T03:00:19.002Z,80.77
2023-02-18T03:02:49.088Z,79.62
2023-02-18T03:05:17.420Z,79.16
2023-02-18T03:07:47.407Z,78.19
2023-02-18T03:10:17.572Z,78.25
2023-02-18T03:12:47.817Z,78.53
2023-02-18T03:15:17.691Z,77.11
2023-02-18T03:17:49.750Z,75.94
2023-02-18T03:20:19.785Z,76.31
2023-02-18T03:22:49.011Z,75.68
2023-02-18T03:25:17.220Z,76.12
2023-02-18T03:27:46.460Z,76.43
2023-02-18T03:30:16.546Z,76.05
2023-02-18T03:32:44.477Z,75.66
2023-02-18T03:35:14.540Z,75.81
2023-02-18T03:37:44.079Z,75.61
2023-02-18T03:40:11.912Z,75.34
2023-02-18T03:42:38.799Z,75.44
2023-02-18T03:45:06.032Z,76.27
2023-02-18T03:47:33.199Z,75.25
2023-02-18T03:50:00.122Z,74.69
2023-02-18T03:52:27.062Z,75.35
2023-02-18T03:54:53.933Z,74.72
2023-02-18T03:57:20.888Z,74.01
2023-02-18T03:59:47.750Z,74.34
2023-02-18T04:02:14.591Z,74.26
2023-02-18T04:04:41.521Z,74.57
2023-02-18T04:07:08.537Z,74.43
2023-02-18T04:09:35.407Z,74.76
2023-02-18T04:12:02.346Z,75.16
2023-02-18T04:14:29.268Z,75.07
2023-02-18T04:16:56.136Z,75.27
2023-02-18T04:19:23.013Z,74.59
2023-02-18T04:21:50.028Z,75.21
2023-02-18T04:24:16.988Z,75.26
2023-02-18T04:26:43.995Z,74.95
2023-02-18T04:29:10.895Z,74.84
2023-02-18T04:31:37.885Z,75.26
2023-02-18T04:34:05.091Z,74.92
2023-02-18T04:36:31.965Z,75.13
2023-02-18T04:38:59.686Z,74.60
2023-02-18T04:41:26.664Z,75.26
2023-02-18T04:43:53.638Z,75.22
2023-02-18T04:46:20.631Z,74.82
2023-02-18T04:48:47.537Z,75.38
2023-02-18T04:51:14.378Z,74.95
2023-02-18T04:53:41.263Z,75.00
2023-02-18T04:56:08.425Z,75.68
2023-02-18T04:58:35.723Z,75.62
2023-02-18T05:01:04.071Z,76.03
2023-02-18T05:03:31.334Z,76.18
2023-02-18T05:05:58.699Z,75.83
2023-02-18T05:08:25.635Z,76.63
2023-02-18T05:10:52.567Z,76.15
2023-02-18T05:13:19.530Z,76.00
2023-02-18T05:15:46.446Z,77.00
2023-02-18T05:18:13.328Z,76.85
2023-02-18T05:20:40.273Z,77.02
2023-02-18T05:23:07.205Z,77.80
2023-02-18T05:25:34.130Z,77.75
2023-02-18T05:28:00.960Z,78.33
2023-02-18T05:30:27.864Z,78.18
2023-02-18T05:32:54.838Z,79.03
2023-02-18T05:35:21.750Z,79.13
2023-02-18T05:37:48.635Z,79.22
2023-02-18T05:40:15.733Z,79.11
2023-02-18T05:42:42.605Z,78.93
2023-02-18T05:45:09.744Z,79.19
2023-02-18T05:47:36.647Z,79.55
2023-02-18T05:50:04.526Z,80.41
2023-02-18T05:52:31.440Z,80.46
2023-02-18T05:54:58.366Z,80.66
2023-02-18T05:57:25.316Z,81.46
2023-02-18T05:59:52.304Z,81.59
2023-02-18T06:02:19.277Z,81.79
2023-02-18T06:04:46.133Z,81.70
2023-02-18T06:07:13.389Z,81.28
2023-02-18T06:09:40.232Z,81.62
2023-02-18T06:12:07.290Z,81.51
2023-02-18T06:14:34.126Z,81.29
2023-02-18T06:17:01.047Z,81.49
2023-02-18T06:19:27.982Z,81.76
2023-02-18T06:21:56.429Z,81.90
2023-02-18T06:24:23.329Z,82.08
2023-02-18T06:26:50.215Z,82.04
2023-02-18T06:29:17.343Z,81.78
2023-02-18T06:31:44.431Z,81.92
2023-02-18T06:34:11.385Z,82.45
2023-02-18T06:36:38.288Z,82.62
2023-02-18T06:39:05.303Z,82.00
2023-02-18T06:41:32.262Z,82.03
2023-02-18T06:43:59.355Z,82.24
2023-02-18T06:46:26.261Z,81.91
2023-02-18T06:48:53.217Z,82.43
2023-02-18T06:51:20.130Z,82.56
2023-02-18T06:53:47.060Z,82.73
2023-02-18T06:56:14.087Z,82.34
2023-02-18T06:58:40.986Z,82.61
2023-02-18T07:01:07.947Z,82.51
2023-02-18T07:03:34.920Z,82.92
2023-02-18T07:06:01.876Z,82.80
2023-02-18T07:08:30.925Z,82.82
2023-02-18T07:10:58.050Z,82.48
2023-02-18T07:13:24.938Z,82.98
2023-02-18T07:15:51.760Z,82.51
2023-02-18T07:18:18.680Z,82.85
2023-02-18T07:20:45.589Z,83.22
2023-02-18T07:23:12.441Z,82.99
2023-02-18T07:25:39.432Z,82.88
2023-02-18T07:28:06.385Z,82.80
2023-02-18T07:30:33.346Z,83.45
2023-02-18T07:33:01.926Z,83.23
2023-02-18T07:35:30.671Z,82.88
2023-02-18T07:37:58.217Z,82.85
2023-02-18T07:40:25.000Z,82.74
2023-02-18T07:42:51.713Z,82.93
2023-02-18T07:45:22.225Z,82.90
2023-02-18T07:47:49.028Z,82.65
2023-02-18T07:50:15.759Z,82.95
2023-02-18T07:52:42.535Z,82.92
2023-02-18T07:55:09.320Z,82.88
2023-02-18T07:57:55.997Z,83.08
2023-02-18T08:00:22.820Z,82.89
2023-02-18T08:02:49.589Z,82.43
2023-02-18T08:05:16.377Z,82.00
2023-02-18T08:07:43.257Z,82.01
2023-02-18T08:10:10.252Z,81.96
2023-02-18T08:12:37.017Z,81.94
2023-02-18T08:15:04.082Z,81.24
2023-02-18T08:17:30.899Z,81.12
2023-02-18T08:19:57.601Z,81.54
2023-02-18T08:22:24.419Z,81.87
2023-02-18T08:24:51.228Z,81.96
2023-02-18T08:27:17.993Z,81.98
2023-02-18T08:29:44.736Z,82.36
2023-02-18T08:32:11.484Z,82.02
2023-02-18T08:34:38.286Z,81.65
2023-02-18T08:37:05.435Z,82.01
2023-02-18T08:39:36.757Z,82.59
2023-02-18T08:42:04.757Z,82.20
2023-02-18T08:44:33.734Z,82.48
2023-02-18T08:47:01.574Z,82.43
2023-02-18T08:49:28.369Z,83.05
2023-02-18T08:51:55.867Z,83.43
2023-02-18T08:54:23.261Z,83.36
2023-02-18T08:56:50.085Z,82.45
2023-02-18T08:59:16.881Z,82.37
2023-02-18T09:01:43.698Z,82.24
2023-02-18T09:04:10.539Z,82.81
2023-02-18T09:06:38.048Z,82.73
2023-02-18T09:09:05.016Z,82.84
2023-02-18T09:11:32.202Z,82.57
2023-02-18T09:13:59.005Z,82.80
2023-02-18T09:16:27.120Z,82.55
2023-02-18T09:18:54.270Z,82.91
2023-02-18T09:21:21.008Z,82.31
2023-02-18T09:23:47.983Z,82.75
2023-02-18T09:26:15.697Z,83.12
2023-02-18T09:28:42.701Z,82.35
2023-02-18T09:31:12.499Z,82.52
2023-02-18T09:33:40.635Z,82.71
2023-02-18T09:36:08.121Z,82.80
2023-02-18T09:38:35.183Z,82.54
2023-02-18T09:41:07.981Z,82.12
2023-02-18T09:43:35.666Z,82.38
2023-02-18T09:46:04.506Z,82.62
2023-02-18T09:48:32.937Z,82.98
2023-02-18T09:51:00.443Z,82.83
2023-02-18T09:53:27.495Z,82.68
2023-02-18T09:55:56.405Z,82.53
2023-02-18T09:58:26.020Z,82.80
2023-02-18T10:00:55.251Z,82.94
2023-02-18T10:03:23.968Z,82.94
2023-02-18T10:05:52.184Z,82.76
2023-02-18T10:08:22.049Z,82.88
2023-02-18T10:10:49.086Z,83.58
2023-02-18T10:13:18.389Z,83.73
2023-02-18T10:15:45.799Z,84.05
2023-02-18T10:18:15.815Z,84.14
2023-02-18T10:20:42.767Z,84.53
2023-02-18T10:23:11.105Z,84.14
2023-02-18T10:25:42.459Z,83.96
2023-02-18T10:28:10.345Z,83.85
2023-02-18T10:30:40.779Z,83.75
2023-02-18T10:33:10.936Z,84.21
2023-02-18T10:35:43.599Z,84.05
2023-02-18T10:38:17.221Z,84.34
2023-02-18T10:40:47.292Z,84.34
2023-02-18T10:43:15.497Z,84.83
2023-02-18T10:45:43.825Z,84.76
2023-02-18T10:48:21.623Z,84.83
2023-02-18T10:50:48.934Z,84.60
2023-02-18T10:53:21.329Z,84.55
2023-02-18T10:55:50.081Z,84.98
2023-02-18T10:58:20.149Z,85.34
2023-02-18T11:00:46.971Z,85.32
2023-02-18T11:03:15.922Z,85.18
2023-02-18T11:05:43.182Z,85.56
2023-02-18T11:08:11.427Z,85.68
2023-02-18T11:10:42.464Z,85.53
2023-02-18T11:13:10.542Z,85.56
2023-02-18T11:15:37.763Z,85.93
2023-02-18T11:18:07.880Z,85.85
2023-02-18T11:20:36.196Z,85.86
2023-02-18T11:23:06.237Z,85.65
2023-02-18T11:25:35.418Z,86.51
2023-02-18T11:28:02.695Z,86.48
2023-02-18T11:30:33.637Z,86.23
2023-02-18T11:33:06.670Z,86.80
2023-02-18T11:35:34.278Z,86.61
2023-02-18T11:38:02.839Z,86.72
2023-02-18T11:40:30.263Z,86.86
2023-02-18T11:43:00.316Z,86.70
2023-02-18T11:45:29.138Z,87.09
2023-02-18T11:47:59.179Z,86.99
2023-02-18T11:50:26.125Z,87.11
2023-02-18T11:52:54.230Z,87.03
2023-02-18T11:55:23.609Z,87.32
2023-02-18T11:57:58.264Z,87.20
2023-02-18T12:00:25.719Z,87.47
2023-02-18T12:02:55.506Z,87.61
2023-02-18T12:05:23.919Z,87.86
2023-02-18T12:07:53.088Z,88.05
2023-02-18T12:10:23.834Z,88.54
2023-02-18T12:12:54.835Z,88.87
2023-02-18T12:15:25.496Z,88.69
2023-02-18T12:18:00.488Z,88.47
2023-02-18T12:20:28.694Z,90.13
2023-02-18T12:23:04.566Z,90.28
2023-02-18T12:25:37.801Z,90.79
2023-02-18T12:28:12.315Z,88.76
2023-02-18T12:30:45.423Z,87.31
2023-02-18T12:33:15.692Z,87.13
2023-02-18T12:35:45.662Z,87.38
2023-02-18T12:38:13.911Z,86.84
2023-02-18T12:40:44.143Z,86.49
2023-02-18T12:43:12.446Z,86.91
2023-02-18T12:45:39.843Z,86.87
2023-02-18T12:48:08.007Z,86.83
2023-02-18T12:50:38.040Z,86.83
2023-02-18T12:53:08.121Z,87.15
2023-02-18T12:55:36.437Z,87.12
2023-02-18T12:58:04.795Z,86.64
2023-02-18T13:00:32.152Z,86.86
2023-02-18T13:03:02.128Z,86.82
2023-02-18T13:05:32.485Z,86.83
2023-02-18T13:08:02.605Z,87.07
2023-02-18T13:10:42.546Z,88.00
2023-02-18T13:13:12.926Z,88.20
2023-02-18T13:15:43.145Z,88.29
2023-02-18T13:18:13.432Z,88.75
2023-02-18T13:20:43.827Z,89.58
2023-02-18T13:23:13.851Z,89.78
2023-02-18T13:25:41.123Z,89.90
2023-02-18T13:28:11.192Z,90.44
2023-02-18T13:30:43.639Z,90.29
2023-02-18T13:33:13.528Z,90.61
2023-02-18T13:35:47.032Z,91.25
2023-02-18T13:38:15.207Z,91.72
2023-02-18T13:40:43.310Z,91.48
2023-02-18T13:43:19.290Z,92.13
2023-02-18T13:46:03.209Z,92.49
2023-02-18T13:48:30.121Z,92.65
2023-02-18T13:51:00.300Z,93.19
2023-02-18T13:53:29.966Z,93.16
2023-02-18T13:55:57.401Z,93.42
2023-02-18T13:58:24.621Z,94.10
2023-02-18T14:00:55.947Z,93.95
2023-02-18T14:03:26.052Z,94.49
2023-02-18T14:05:56.373Z,94.17
2023-02-18T14:08:26.430Z,94.20
2023-02-18T14:10:56.406Z,94.49
2023-02-18T14:13:25.514Z,93.49
2023-02-18T14:15:55.130Z,93.41
2023-02-18T14:18:25.105Z,93.50
2023-02-18T14:20:52.948Z,93.19
2023-02-18T14:23:20.499Z,92.30
2023-02-18T14:25:50.507Z,91.58
2023-02-18T14:28:20.630Z,91.31
2023-02-18T14:30:47.708Z,91.04
2023-02-18T14:33:15.652Z,91.29
2023-02-18T14:35:45.633Z,91.81
2023-02-18T14:38:15.631Z,91.91
2023-02-18T14:40:47.730Z,91.99
2023-02-18T14:43:14.868Z,92.44
2023-02-18T14:45:44.927Z,92.64
2023-02-18T14:48:22.695Z,91.80
2023-02-18T14:50:51.071Z,91.99
2023-02-18T14:53:20.013Z,91.91
2023-02-18T14:55:52.971Z,90.03
2023-02-18T14:58:20.257Z,89.89
2023-02-18T15:00:47.197Z,88.38
2023-02-18T15:03:15.987Z,87.47
2023-02-18T15:05:43.497Z,87.03
2023-02-18T15:08:16.966Z,86.49
2023-02-18T15:10:45.274Z,86.26
2023-02-18T15:13:17.269Z,85.97
2023-02-18T15:15:45.802Z,86.37
2023-02-18T15:18:15.826Z,85.80
2023-02-18T15:20:42.861Z,85.24
2023-02-18T15:23:12.494Z,85.80
2023-02-18T15:25:39.831Z,85.71
2023-02-18T15:28:06.880Z,85.48
2023-02-18T15:30:33.819Z,85.64
2023-02-18T15:33:01.282Z,85.55
2023-02-18T15:35:30.137Z,85.18
2023-02-18T15:37:58.514Z,84.21
2023-02-18T15:40:30.313Z,84.03
2023-02-18T15:42:58.288Z,83.49
2023-02-18T15:45:30.123Z,83.22
2023-02-18T15:48:00.441Z,82.25
2023-02-18T15:50:28.684Z,81.61
2023-02-18T15:52:57.305Z,80.31
2023-02-18T15:55:27.349Z,80.35
2023-02-18T15:57:55.046Z,79.27
2023-02-18T16:00:26.935Z,78.30
2023-02-18T16:02:55.974Z,78.91
2023-02-18T16:05:26.331Z,78.78
2023-02-18T16:07:54.149Z,78.21
2023-02-18T16:10:24.448Z,78.26
2023-02-18T16:12:54.279Z,78.45
2023-02-18T16:15:26.031Z,79.04
2023-02-18T16:17:53.512Z,78.67
2023-02-18T16:20:23.528Z,78.75
2023-02-18T16:22:53.009Z,79.01
2023-02-18T16:25:23.258Z,79.00
2023-02-18T16:27:53.038Z,80.21
2023-02-18T16:30:23.617Z,80.08
2023-02-18T16:32:50.832Z,79.94
2023-02-18T16:35:18.884Z,79.38
2023-02-18T16:37:48.100Z,79.24
2023-02-18T16:40:18.213Z,79.06
2023-02-18T16:42:45.156Z,79.35
2023-02-18T16:45:12.935Z,79.73
2023-02-18T16:47:40.184Z,81.15
2023-02-18T16:50:14.538Z,80.89
2023-02-18T16:52:41.396Z,81.35
2023-02-18T16:55:11.508Z,81.31
2023-02-18T16:57:38.429Z,81.16
2023-02-18T17:00:08.305Z,81.83
2023-02-18T17:02:36.418Z,81.37
2023-02-18T17:05:06.226Z,80.80
2023-02-18T17:07:34.862Z,81.27
2023-02-18T17:10:01.745Z,80.35
2023-02-18T17:12:28.941Z,80.44
2023-02-18T17:14:55.939Z,79.86
2023-02-18T17:17:23.972Z,79.64
2023-02-18T17:19:51.180Z,78.78
2023-02-18T17:22:18.063Z,78.49
2023-02-18T17:24:45.170Z,77.95
2023-02-18T17:27:12.202Z,77.19
2023-02-18T17:29:39.127Z,77.85
2023-02-18T17:32:08.430Z,77.73
2023-02-18T17:34:37.952Z,77.30
2023-02-18T17:37:04.876Z,77.44
2023-02-18T17:39:31.844Z,76.98
2023-02-18T17:41:58.954Z,77.13
2023-02-18T17:44:26.401Z,77.37
2023-02-18T17:46:55.177Z,77.13
2023-02-18T17:49:23.028Z,77.18
2023-02-18T17:51:50.043Z,77.38
2023-02-18T17:54:18.449Z,77.32
2023-02-18T17:56:46.232Z,76.64
2023-02-18T17:59:13.567Z,76.19
2023-02-18T18:01:41.308Z,76.24
2023-02-18T18:04:11.203Z,75.25
2023-02-18T18:06:38.223Z,75.20
2023-02-18T18:09:07.321Z,74.94
2023-02-18T18:11:36.006Z,74.67
2023-02-18T18:14:03.182Z,75.51
2023-02-18T18:16:30.391Z,74.63
2023-02-18T18:18:57.480Z,73.81
2023-02-18T18:21:29.614Z,74.07
2023-02-18T18:23:56.512Z,73.82
2023-02-18T18:26:23.356Z,73.58
2023-02-18T18:28:50.388Z,73.48
2023-02-18T18:31:19.120Z,74.04
2023-02-18T18:33:49.800Z,74.03
2023-02-18T18:36:17.482Z,74.87
2023-02-18T18:38:44.579Z,73.70
2023-02-18T18:41:14.213Z,74.26
2023-02-18T18:43:41.241Z,74.62
2023-02-18T18:46:10.771Z,75.83
2023-02-18T18:48:38.262Z,76.77
2023-02-18T18:51:05.634Z,75.64
2023-02-18T18:53:34.435Z,75.82
2023-02-18T18:56:02.594Z,75.55
2023-02-18T18:58:29.530Z,76.31
2023-02-18T19:00:57.916Z,77.51
2023-02-18T19:03:26.981Z,77.36
2023-02-18T19:05:57.042Z,77.01
2023-02-18T19:08:24.081Z,77.38
2023-02-18T19:10:52.395Z,77.54
2023-02-18T19:13:19.665Z,77.53
2023-02-18T19:15:47.218Z,77.68
2023-02-18T19:18:16.582Z,78.11
2023-02-18T19:20:43.990Z,78.48
2023-02-18T19:23:10.909Z,78.44
2023-02-18T19:25:39.199Z,78.65
2023-02-18T19:28:06.486Z,78.88
2023-02-18T19:30:34.779Z,79.37
2023-02-18T19:33:02.704Z,79.51
2023-02-18T19:35:30.184Z,81.26
2023-02-18T19:37:57.099Z,80.48
2023-02-18T19:40:25.650Z,80.22
2023-02-18T19:42:53.283Z,80.81
2023-02-18T19:45:20.894Z,80.48
2023-02-18T19:47:48.323Z,81.13
2023-02-18T19:50:16.385Z,80.87
2023-02-18T19:52:43.289Z,81.11
2023-02-18T19:55:10.599Z,81.05
2023-02-18T19:57:37.724Z,81.72
2023-02-18T20:00:05.653Z,81.73
2023-02-18T20:02:33.284Z,82.41
2023-02-18T20:05:01.941Z,82.65
2023-02-18T20:07:32.150Z,82.37
2023-02-18T20:09:59.168Z,82.43
2023-02-18T20:12:26.380Z,82.96
2023-02-18T20:14:53.220Z,83.29
2023-02-18T20:17:20.152Z,83.18
2023-02-18T20:19:47.687Z,83.26
2023-02-18T20:22:14.718Z,83.80
2023-02-18T20:24:41.837Z,83.59
2023-02-18T20:27:09.610Z,83.67
2023-02-18T20:29:36.753Z,83.16
2023-02-18T20:32:04.537Z,83.09
2023-02-18T20:34:31.827Z,83.14
2023-02-18T20:36:59.192Z,83.03
2023-02-18T20:39:26.226Z,83.50
2023-02-18T20:41:53.313Z,83.49
2023-02-18T20:44:20.806Z,83.46
2023-02-18T20:46:49.345Z,83.38
2023-02-18T20:49:17.726Z,83.26
2023-02-18T20:51:44.729Z,82.54
2023-02-18T20:54:15.894Z,82.74
2023-02-18T20:56:44.019Z,82.69
2023-02-18T20:59:13.254Z,83.21
2023-02-18T21:01:41.272Z,82.71
2023-02-18T21:04:08.773Z,82.44
2023-02-18T21:06:35.751Z,82.83
2023-02-18T21:09:02.881Z,83.04
2023-02-18T21:11:30.065Z,83.58
2023-02-18T21:14:01.701Z,82.69
2023-02-18T21:16:29.463Z,82.05
2023-02-18T21:18:56.454Z,81.93
2023-02-18T21:21:23.995Z,82.20
2023-02-18T21:23:51.439Z,82.11
2023-02-18T21:26:21.043Z,82.30
2023-02-18T21:28:49.600Z,82.45
2023-02-18T21:31:19.214Z,82.26
2023-02-18T21:33:46.026Z,82.19
2023-02-18T21:36:14.234Z,81.67
2023-02-18T21:38:43.346Z,81.44
2023-02-18T21:41:12.420Z,81.40
2023-02-18T21:43:39.571Z,81.72
2023-02-18T21:46:07.979Z,81.53
2023-02-18T21:48:38.086Z,82.10
2023-02-18T21:51:05.220Z,82.36
2023-02-18T21:53:32.057Z,82.12
2023-02-18T21:56:08.394Z,81.93
2023-02-18T21:58:35.315Z,81.96
2023-02-18T22:01:02.285Z,82.30
2023-02-18T22:03:29.251Z,82.46
2023-02-18T22:05:56.147Z,82.39
2023-02-18T22:08:23.062Z,82.80
2023-02-18T22:10:49.995Z,83.09
2023-02-18T22:13:17.114Z,83.51
2023-02-18T22:15:44.062Z,82.68
2023-02-18T22:18:10.864Z,82.04
2023-02-18T22:20:38.553Z,82.38
2023-02-18T22:23:05.451Z,82.29
2023-02-18T22:25:35.436Z,82.16
2023-02-18T22:28:07.079Z,82.41
2023-02-18T22:30:34.547Z,82.17
2023-02-18T22:33:01.452Z,82.44
2023-02-18T22:35:28.272Z,82.59
2023-02-18T22:37:55.131Z,82.52
2023-02-18T22:40:22.053Z,82.65
2023-02-18T22:42:49.048Z,82.56
2023-02-18T22:45:15.992Z,82.61
2023-02-18T22:47:43.071Z,82.50
2023-02-18T22:50:10.209Z,83.36
2023-02-18T22:52:37.147Z,83.49
2023-02-18T22:55:04.142Z,82.73
2023-02-18T22:57:31.002Z,82.57
2023-02-18T22:59:57.887Z,82.79
2023-02-18T23:02:25.325Z,82.87
2023-02-18T23:04:55.192Z,83.28
2023-02-18T23:07:24.760Z,83.13
2023-02-18T23:09:51.801Z,82.97
2023-02-18T23:12:18.948Z,82.77
2023-02-18T23:14:45.861Z,82.74
2023-02-18T23:17:13.976Z,83.49
2023-02-18T23:19:41.930Z,83.73
2023-02-18T23:22:10.069Z,83.56
2023-02-18T23:24:38.908Z,83.18
2023-02-18T23:27:06.302Z,83.04
2023-02-18T23:29:33.400Z,83.09
2023-02-18T23:32:00.539Z,82.82
2023-02-18T23:34:28.789Z,82.70
2023-02-18T23:36:55.733Z,83.02
2023-02-18T23:39:23.094Z,82.93
2023-02-18T23:41:50.712Z,82.99
2023-02-18T23:44:19.233Z,82.94
2023-02-18T23:46:46.672Z,82.74
2023-02-18T23:49:15.356Z,83.43
2023-02-18T23:51:42.544Z,83.42
2023-02-18T23:54:09.840Z,83.05
2023-02-18T23:56:36.951Z,83.42
2023-02-18T23:59:05.351Z,83.35
